sensor_id;sensor_type;location;lat;lon;timestamp;P1;durP1;ratioP1;P2;durP2;ratioP2
32473;SDS011;41885;53.190;7.984;2022-09-09T00:03:18;6.68;;;4.57;;
32473;SDS011;41885;53.190;7.984;2022-09-09T00:07:25;8.82;;;5.97;;
32473;SDS011;41885;53.190;7.984;2022-09-09T00:11:40;10.73;;;5.55;;
32473;SDS011;41885;53.190;7.984;2022-09-09T00:15:54;12.88;;;7.70;;
32473;SDS011;41885;53.190;7.984;2022-09-09T00:20:01;23.63;;;7.63;;
32473;SDS011;41885;53.190;7.984;2022-09-09T00:24:11;16.40;;;7.78;;
32473;SDS011;41885;53.190;7.984;2022-09-09T00:28:22;15.73;;;7.57;;
32473;SDS011;41885;53.190;7.984;2022-09-09T00:32:29;13.52;;;8.45;;
32473;SDS011;41885;53.190;7.984;2022-09-09T00:36:36;13.18;;;8.05;;
32473;SDS011;41885;53.190;7.984;2022-09-09T00:40:40;14.75;;;7.82;;
32473;SDS011;41885;53.190;7.984;2022-09-09T00:44:52;16.25;;;8.10;;
32473;SDS011;41885;53.190;7.984;2022-09-09T00:49:02;13.02;;;7.78;;
32473;SDS011;41885;53.190;7.984;2022-09-09T00:53:14;16.60;;;7.55;;
32473;SDS011;41885;53.190;7.984;2022-09-09T00:57:30;10.60;;;7.30;;
32473;SDS011;41885;53.190;7.984;2022-09-09T01:01:33;16.95;;;7.88;;
32473;SDS011;41885;53.190;7.984;2022-09-09T01:05:39;15.38;;;7.90;;
32473;SDS011;41885;53.190;7.984;2022-09-09T01:09:51;13.13;;;7.15;;
32473;SDS011;41885;53.190;7.984;2022-09-09T01:13:56;12.95;;;7.60;;
32473;SDS011;41885;53.190;7.984;2022-09-09T01:18:07;14.43;;;8.38;;
32473;SDS011;41885;53.190;7.984;2022-09-09T01:22:21;13.55;;;6.88;;
32473;SDS011;41885;53.190;7.984;2022-09-09T01:26:35;19.90;;;6.10;;
32473;SDS011;41885;53.190;7.984;2022-09-09T01:30:44;12.13;;;6.40;;
32473;SDS011;41885;53.190;7.984;2022-09-09T01:34:49;9.75;;;6.45;;
32473;SDS011;41885;53.190;7.984;2022-09-09T01:38:53;8.68;;;5.53;;
32473;SDS011;41885;53.190;7.984;2022-09-09T01:42:57;15.88;;;6.00;;
32473;SDS011;41885;53.190;7.984;2022-09-09T01:46:59;10.77;;;6.35;;
32473;SDS011;41885;53.190;7.984;2022-09-09T01:51:01;10.75;;;6.65;;
32473;SDS011;41885;53.190;7.984;2022-09-09T01:55:04;9.82;;;6.03;;
32473;SDS011;41885;53.190;7.984;2022-09-09T01:59:17;11.90;;;7.22;;
32473;SDS011;41885;53.190;7.984;2022-09-09T02:03:31;9.68;;;7.28;;
32473;SDS011;41885;53.190;7.984;2022-09-09T02:07:45;13.60;;;7.68;;
32473;SDS011;41885;53.190;7.984;2022-09-09T02:12:07;12.35;;;7.80;;
32473;SDS011;41885;53.190;7.984;2022-09-09T02:16:22;17.20;;;7.80;;
32473;SDS011;41885;53.190;7.984;2022-09-09T02:20:28;12.15;;;7.78;;
32473;SDS011;41885;53.190;7.984;2022-09-09T02:24:34;15.40;;;7.72;;
32473;SDS011;41885;53.190;7.984;2022-09-09T02:29:07;18.58;;;8.52;;
32473;SDS011;41885;53.190;7.984;2022-09-09T02:33:17;12.45;;;7.72;;
32473;SDS011;41885;53.190;7.984;2022-09-09T02:37:24;14.38;;;7.68;;
32473;SDS011;41885;53.190;7.984;2022-09-09T02:41:32;13.88;;;7.00;;
32473;SDS011;41885;53.190;7.984;2022-09-09T02:45:36;9.45;;;6.88;;
32473;SDS011;41885;53.190;7.984;2022-09-09T02:49:51;12.70;;;7.53;;
32473;SDS011;41885;53.190;7.984;2022-09-09T02:54:04;13.45;;;6.68;;
32473;SDS011;41885;53.190;7.984;2022-09-09T02:58:13;18.25;;;7.63;;
32473;SDS011;41885;53.190;7.984;2022-09-09T03:02:20;12.77;;;7.10;;
32473;SDS011;41885;53.190;7.984;2022-09-09T03:06:29;14.80;;;7.38;;
32473;SDS011;41885;53.190;7.984;2022-09-09T03:10:39;16.33;;;7.68;;
32473;SDS011;41885;53.190;7.984;2022-09-09T03:14:41;12.20;;;8.65;;
32473;SDS011;41885;53.190;7.984;2022-09-09T03:18:46;15.38;;;7.18;;
32473;SDS011;41885;53.190;7.984;2022-09-09T03:22:49;14.10;;;7.18;;
32473;SDS011;41885;53.190;7.984;2022-09-09T03:30:58;17.40;;;7.43;;
32473;SDS011;41885;53.190;7.984;2022-09-09T03:35:00;13.45;;;6.47;;
32473;SDS011;41885;53.190;7.984;2022-09-09T03:39:03;13.35;;;6.65;;
32473;SDS011;41885;53.190;7.984;2022-09-09T03:43:05;13.43;;;5.90;;
32473;SDS011;41885;53.190;7.984;2022-09-09T03:47:07;11.15;;;6.03;;
32473;SDS011;41885;53.190;7.984;2022-09-09T03:51:10;7.78;;;5.10;;
32473;SDS011;41885;53.190;7.984;2022-09-09T03:55:13;13.80;;;5.07;;
32473;SDS011;41885;53.190;7.984;2022-09-09T03:59:15;12.10;;;5.45;;
32473;SDS011;41885;53.190;7.984;2022-09-09T04:03:17;11.05;;;5.32;;
32473;SDS011;41885;53.190;7.984;2022-09-09T04:07:19;16.00;;;5.22;;
32473;SDS011;41885;53.190;7.984;2022-09-09T04:11:23;8.55;;;5.03;;
32473;SDS011;41885;53.190;7.984;2022-09-09T04:15:27;10.15;;;5.07;;
32473;SDS011;41885;53.190;7.984;2022-09-09T04:19:29;11.10;;;4.65;;
32473;SDS011;41885;53.190;7.984;2022-09-09T04:23:32;7.60;;;4.10;;
32473;SDS011;41885;53.190;7.984;2022-09-09T04:27:36;7.25;;;4.78;;
32473;SDS011;41885;53.190;7.984;2022-09-09T04:31:39;7.32;;;4.35;;
32473;SDS011;41885;53.190;7.984;2022-09-09T04:35:43;10.10;;;4.10;;
32473;SDS011;41885;53.190;7.984;2022-09-09T04:39:46;6.55;;;4.43;;
32473;SDS011;41885;53.190;7.984;2022-09-09T04:43:50;5.93;;;3.85;;
32473;SDS011;41885;53.190;7.984;2022-09-09T04:47:54;10.15;;;4.68;;
32473;SDS011;41885;53.190;7.984;2022-09-09T04:51:57;9.85;;;3.95;;
32473;SDS011;41885;53.190;7.984;2022-09-09T04:56:02;7.22;;;4.00;;
32473;SDS011;41885;53.190;7.984;2022-09-09T05:00:11;6.47;;;3.75;;
32473;SDS011;41885;53.190;7.984;2022-09-09T05:04:15;9.07;;;4.50;;
32473;SDS011;41885;53.190;7.984;2022-09-09T05:08:17;7.15;;;4.22;;
32473;SDS011;41885;53.190;7.984;2022-09-09T05:12:19;12.43;;;3.78;;
32473;SDS011;41885;53.190;7.984;2022-09-09T05:16:26;7.03;;;4.20;;
32473;SDS011;41885;53.190;7.984;2022-09-09T05:24:32;9.48;;;4.45;;
32473;SDS011;41885;53.190;7.984;2022-09-09T05:28:34;8.75;;;4.20;;
32473;SDS011;41885;53.190;7.984;2022-09-09T05:32:39;11.05;;;4.90;;
32473;SDS011;41885;53.190;7.984;2022-09-09T05:36:40;11.40;;;4.05;;
32473;SDS011;41885;53.190;7.984;2022-09-09T05:40:46;5.65;;;3.50;;
32473;SDS011;41885;53.190;7.984;2022-09-09T05:44:50;6.05;;;3.70;;
32473;SDS011;41885;53.190;7.984;2022-09-09T05:48:56;4.43;;;2.90;;
32473;SDS011;41885;53.190;7.984;2022-09-09T05:53:02;8.55;;;2.90;;
32473;SDS011;41885;53.190;7.984;2022-09-09T05:57:04;3.30;;;2.40;;
32473;SDS011;41885;53.190;7.984;2022-09-09T06:01:07;4.18;;;2.50;;
32473;SDS011;41885;53.190;7.984;2022-09-09T06:05:12;6.05;;;2.70;;
32473;SDS011;41885;53.190;7.984;2022-09-09T06:09:15;4.78;;;2.80;;
32473;SDS011;41885;53.190;7.984;2022-09-09T06:13:17;6.03;;;2.75;;
32473;SDS011;41885;53.190;7.984;2022-09-09T06:17:19;6.57;;;3.00;;
32473;SDS011;41885;53.190;7.984;2022-09-09T06:21:23;6.20;;;3.35;;
32473;SDS011;41885;53.190;7.984;2022-09-09T06:25:27;7.18;;;3.40;;
32473;SDS011;41885;53.190;7.984;2022-09-09T06:29:29;4.80;;;3.63;;
32473;SDS011;41885;53.190;7.984;2022-09-09T06:33:31;6.40;;;3.45;;
32473;SDS011;41885;53.190;7.984;2022-09-09T06:37:36;6.28;;;2.63;;
32473;SDS011;41885;53.190;7.984;2022-09-09T06:41:38;7.93;;;3.53;;
32473;SDS011;41885;53.190;7.984;2022-09-09T06:45:54;10.85;;;3.30;;
32473;SDS011;41885;53.190;7.984;2022-09-09T06:49:57;4.65;;;2.70;;
32473;SDS011;41885;53.190;7.984;2022-09-09T06:54:01;6.32;;;2.88;;
32473;SDS011;41885;53.190;7.984;2022-09-09T06:58:07;4.55;;;2.72;;
32473;SDS011;41885;53.190;7.984;2022-09-09T07:02:09;7.60;;;3.08;;
32473;SDS011;41885;53.190;7.984;2022-09-09T07:06:12;5.43;;;2.65;;
32473;SDS011;41885;53.190;7.984;2022-09-09T07:10:18;6.20;;;3.22;;
32473;SDS011;41885;53.190;7.984;2022-09-09T07:14:20;4.93;;;2.80;;
32473;SDS011;41885;53.190;7.984;2022-09-09T07:18:28;7.10;;;3.30;;
32473;SDS011;41885;53.190;7.984;2022-09-09T07:22:31;8.00;;;3.40;;
32473;SDS011;41885;53.190;7.984;2022-09-09T07:26:35;5.60;;;3.53;;
32473;SDS011;41885;53.190;7.984;2022-09-09T07:30:37;6.60;;;3.13;;
32473;SDS011;41885;53.190;7.984;2022-09-09T07:34:40;6.72;;;3.75;;
32473;SDS011;41885;53.190;7.984;2022-09-09T07:38:42;4.93;;;3.38;;
32473;SDS011;41885;53.190;7.984;2022-09-09T07:42:48;6.55;;;3.67;;
32473;SDS011;41885;53.190;7.984;2022-09-09T07:46:51;5.90;;;3.28;;
32473;SDS011;41885;53.190;7.984;2022-09-09T07:51:04;5.60;;;3.25;;
32473;SDS011;41885;53.190;7.984;2022-09-09T07:55:08;5.25;;;3.42;;
32473;SDS011;41885;53.190;7.984;2022-09-09T07:59:12;9.77;;;4.20;;
32473;SDS011;41885;53.190;7.984;2022-09-09T08:03:16;6.60;;;3.58;;
32473;SDS011;41885;53.190;7.984;2022-09-09T08:07:18;6.18;;;2.55;;
32473;SDS011;41885;53.190;7.984;2022-09-09T08:11:27;4.85;;;3.08;;
32473;SDS011;41885;53.190;7.984;2022-09-09T08:15:32;6.45;;;2.47;;
32473;SDS011;41885;53.190;7.984;2022-09-09T08:19:34;4.35;;;2.65;;
32473;SDS011;41885;53.190;7.984;2022-09-09T08:23:40;4.95;;;2.22;;
32473;SDS011;41885;53.190;7.984;2022-09-09T08:31:47;6.70;;;2.38;;
32473;SDS011;41885;53.190;7.984;2022-09-09T08:35:51;4.22;;;2.40;;
32473;SDS011;41885;53.190;7.984;2022-09-09T08:39:53;9.30;;;2.70;;
32473;SDS011;41885;53.190;7.984;2022-09-09T08:43:58;4.63;;;2.20;;
32473;SDS011;41885;53.190;7.984;2022-09-09T08:48:15;5.03;;;2.40;;
32473;SDS011;41885;53.190;7.984;2022-09-09T08:52:31;3.90;;;2.42;;
32473;SDS011;41885;53.190;7.984;2022-09-09T08:56:40;5.25;;;2.40;;
32473;SDS011;41885;53.190;7.984;2022-09-09T09:00:50;5.30;;;2.75;;
32473;SDS011;41885;53.190;7.984;2022-09-09T09:05:06;5.22;;;2.72;;
32473;SDS011;41885;53.190;7.984;2022-09-09T09:09:21;6.38;;;2.08;;
32473;SDS011;41885;53.190;7.984;2022-09-09T09:13:33;6.53;;;2.17;;
32473;SDS011;41885;53.190;7.984;2022-09-09T09:17:41;5.53;;;2.17;;
32473;SDS011;41885;53.190;7.984;2022-09-09T09:21:48;6.22;;;2.40;;
32473;SDS011;41885;53.190;7.984;2022-09-09T09:25:55;6.40;;;2.30;;
32473;SDS011;41885;53.190;7.984;2022-09-09T09:30:02;4.47;;;2.53;;
32473;SDS011;41885;53.190;7.984;2022-09-09T09:34:15;4.60;;;1.73;;
32473;SDS011;41885;53.190;7.984;2022-09-09T09:38:20;2.63;;;1.85;;
32473;SDS011;41885;53.190;7.984;2022-09-09T09:42:27;7.65;;;2.40;;
32473;SDS011;41885;53.190;7.984;2022-09-09T09:46:31;3.25;;;2.00;;
32473;SDS011;41885;53.190;7.984;2022-09-09T09:50:46;9.80;;;2.35;;
32473;SDS011;41885;53.190;7.984;2022-09-09T09:54:52;7.10;;;2.50;;
32473;SDS011;41885;53.190;7.984;2022-09-09T09:58:55;8.95;;;2.10;;
32473;SDS011;41885;53.190;7.984;2022-09-09T10:03:12;5.47;;;2.03;;
32473;SDS011;41885;53.190;7.984;2022-09-09T10:07:24;3.78;;;1.75;;
32473;SDS011;41885;53.190;7.984;2022-09-09T10:11:30;2.85;;;1.38;;
32473;SDS011;41885;53.190;7.984;2022-09-09T10:15:47;4.85;;;1.50;;
32473;SDS011;41885;53.190;7.984;2022-09-09T10:20:04;4.10;;;1.40;;
32473;SDS011;41885;53.190;7.984;2022-09-09T10:24:28;2.38;;;1.20;;
32473;SDS011;41885;53.190;7.984;2022-09-09T10:29:10;5.10;;;1.27;;
32473;SDS011;41885;53.190;7.984;2022-09-09T10:33:32;2.33;;;1.02;;
32473;SDS011;41885;53.190;7.984;2022-09-09T10:37:44;2.38;;;1.00;;
32473;SDS011;41885;53.190;7.984;2022-09-09T10:42:14;4.78;;;1.05;;
32473;SDS011;41885;53.190;7.984;2022-09-09T10:46:20;3.25;;;1.60;;
32473;SDS011;41885;53.190;7.984;2022-09-09T10:50:34;6.53;;;1.60;;
32473;SDS011;41885;53.190;7.984;2022-09-09T10:54:48;3.28;;;1.23;;
32473;SDS011;41885;53.190;7.984;2022-09-09T10:58:56;5.05;;;1.17;;
32473;SDS011;41885;53.190;7.984;2022-09-09T11:03:03;5.03;;;1.20;;
32473;SDS011;41885;53.190;7.984;2022-09-09T11:07:08;7.93;;;1.65;;
32473;SDS011;41885;53.190;7.984;2022-09-09T11:11:14;4.53;;;1.30;;
32473;SDS011;41885;53.190;7.984;2022-09-09T11:15:20;9.40;;;2.08;;
32473;SDS011;41885;53.190;7.984;2022-09-09T11:19:32;5.03;;;1.50;;
32473;SDS011;41885;53.190;7.984;2022-09-09T11:23:39;13.95;;;2.90;;
32473;SDS011;41885;53.190;7.984;2022-09-09T11:27:44;10.13;;;2.40;;
32473;SDS011;41885;53.190;7.984;2022-09-09T11:32:03;5.85;;;1.83;;
32473;SDS011;41885;53.190;7.984;2022-09-09T11:36:38;7.65;;;2.58;;
32473;SDS011;41885;53.190;7.984;2022-09-09T11:40:54;6.65;;;2.00;;
32473;SDS011;41885;53.190;7.984;2022-09-09T11:45:08;7.43;;;2.67;;
32473;SDS011;41885;53.190;7.984;2022-09-09T11:53:28;6.38;;;1.75;;
32473;SDS011;41885;53.190;7.984;2022-09-09T11:57:32;3.00;;;1.70;;
32473;SDS011;41885;53.190;7.984;2022-09-09T12:01:37;3.55;;;1.20;;
32473;SDS011;41885;53.190;7.984;2022-09-09T12:05:43;2.90;;;1.38;;
32473;SDS011;41885;53.190;7.984;2022-09-09T12:09:48;9.93;;;1.70;;
32473;SDS011;41885;53.190;7.984;2022-09-09T12:13:54;5.15;;;2.13;;
32473;SDS011;41885;53.190;7.984;2022-09-09T12:22:03;10.65;;;2.22;;
32473;SDS011;41885;53.190;7.984;2022-09-09T12:26:25;8.40;;;1.98;;
32473;SDS011;41885;53.190;7.984;2022-09-09T12:30:34;9.77;;;2.70;;
32473;SDS011;41885;53.190;7.984;2022-09-09T12:34:42;7.22;;;2.78;;
32473;SDS011;41885;53.190;7.984;2022-09-09T12:38:48;7.50;;;2.80;;
32473;SDS011;41885;53.190;7.984;2022-09-09T12:42:53;7.93;;;2.95;;
32473;SDS011;41885;53.190;7.984;2022-09-09T12:46:56;7.13;;;2.80;;
32473;SDS011;41885;53.190;7.984;2022-09-09T12:51:01;6.63;;;2.90;;
32473;SDS011;41885;53.190;7.984;2022-09-09T12:55:04;7.22;;;2.80;;
32473;SDS011;41885;53.190;7.984;2022-09-09T12:59:21;6.68;;;3.30;;
32473;SDS011;41885;53.190;7.984;2022-09-09T13:03:25;7.63;;;2.58;;
32473;SDS011;41885;53.190;7.984;2022-09-09T13:07:28;7.13;;;2.30;;
32473;SDS011;41885;53.190;7.984;2022-09-09T13:11:30;4.40;;;2.15;;
32473;SDS011;41885;53.190;7.984;2022-09-09T13:15:39;6.57;;;2.30;;
32473;SDS011;41885;53.190;7.984;2022-09-09T13:19:49;4.63;;;2.30;;
32473;SDS011;41885;53.190;7.984;2022-09-09T13:23:53;6.05;;;2.08;;
32473;SDS011;41885;53.190;7.984;2022-09-09T13:27:58;14.45;;;2.15;;
32473;SDS011;41885;53.190;7.984;2022-09-09T13:32:05;8.38;;;2.15;;
32473;SDS011;41885;53.190;7.984;2022-09-09T13:36:08;6.93;;;2.00;;
32473;SDS011;41885;53.190;7.984;2022-09-09T13:40:14;5.90;;;2.13;;
32473;SDS011;41885;53.190;7.984;2022-09-09T13:44:20;6.28;;;2.45;;
32473;SDS011;41885;53.190;7.984;2022-09-09T13:48:26;5.93;;;2.53;;
32473;SDS011;41885;53.190;7.984;2022-09-09T13:52:30;5.70;;;2.10;;
32473;SDS011;41885;53.190;7.984;2022-09-09T13:56:32;7.13;;;2.22;;
32473;SDS011;41885;53.190;7.984;2022-09-09T14:00:34;4.85;;;1.92;;
32473;SDS011;41885;53.190;7.984;2022-09-09T14:04:37;6.50;;;2.43;;
32473;SDS011;41885;53.190;7.984;2022-09-09T14:08:41;10.93;;;2.85;;
32473;SDS011;41885;53.190;7.984;2022-09-09T14:12:43;4.25;;;2.15;;
32473;SDS011;41885;53.190;7.984;2022-09-09T14:16:46;4.50;;;2.40;;
32473;SDS011;41885;53.190;7.984;2022-09-09T14:20:49;8.48;;;2.83;;
32473;SDS011;41885;53.190;7.984;2022-09-09T14:24:51;5.20;;;2.58;;
32473;SDS011;41885;53.190;7.984;2022-09-09T14:28:53;7.10;;;2.72;;
32473;SDS011;41885;53.190;7.984;2022-09-09T14:32:55;6.07;;;1.70;;
32473;SDS011;41885;53.190;7.984;2022-09-09T14:36:58;3.83;;;2.17;;
32473;SDS011;41885;53.190;7.984;2022-09-09T14:41:00;7.53;;;1.80;;
32473;SDS011;41885;53.190;7.984;2022-09-09T14:45:03;5.88;;;1.80;;
32473;SDS011;41885;53.190;7.984;2022-09-09T14:49:06;4.03;;;1.63;;
32473;SDS011;41885;53.190;7.984;2022-09-09T14:53:09;6.15;;;1.70;;
32473;SDS011;41885;53.190;7.984;2022-09-09T14:57:11;6.70;;;2.00;;
32473;SDS011;41885;53.190;7.984;2022-09-09T15:01:13;6.63;;;2.00;;
32473;SDS011;41885;53.190;7.984;2022-09-09T15:05:16;2.05;;;1.50;;
32473;SDS011;41885;53.190;7.984;2022-09-09T15:09:19;5.28;;;1.92;;
32473;SDS011;41885;53.190;7.984;2022-09-09T15:13:20;6.57;;;2.10;;
32473;SDS011;41885;53.190;7.984;2022-09-09T15:17:23;6.47;;;1.92;;
32473;SDS011;41885;53.190;7.984;2022-09-09T15:21:27;4.18;;;1.73;;
32473;SDS011;41885;53.190;7.984;2022-09-09T15:25:32;7.90;;;1.90;;
32473;SDS011;41885;53.190;7.984;2022-09-09T15:29:34;4.15;;;1.83;;
32473;SDS011;41885;53.190;7.984;2022-09-09T15:33:36;8.75;;;2.95;;
32473;SDS011;41885;53.190;7.984;2022-09-09T15:37:38;14.35;;;2.92;;
32473;SDS011;41885;53.190;7.984;2022-09-09T15:41:41;6.07;;;2.63;;
32473;SDS011;41885;53.190;7.984;2022-09-09T15:45:44;4.80;;;2.90;;
32473;SDS011;41885;53.190;7.984;2022-09-09T15:49:47;6.50;;;2.95;;
32473;SDS011;41885;53.190;7.984;2022-09-09T15:53:51;5.05;;;2.85;;
32473;SDS011;41885;53.190;7.984;2022-09-09T15:57:56;8.00;;;3.05;;
32473;SDS011;41885;53.190;7.984;2022-09-09T16:01:58;6.60;;;2.83;;
32473;SDS011;41885;53.190;7.984;2022-09-09T16:06:01;8.40;;;3.30;;
32473;SDS011;41885;53.190;7.984;2022-09-09T16:10:02;4.50;;;3.13;;
32473;SDS011;41885;53.190;7.984;2022-09-09T16:14:07;6.30;;;3.05;;
32473;SDS011;41885;53.190;7.984;2022-09-09T16:18:09;5.68;;;2.97;;
32473;SDS011;41885;53.190;7.984;2022-09-09T16:22:10;6.18;;;2.60;;
32473;SDS011;41885;53.190;7.984;2022-09-09T16:26:13;6.15;;;3.15;;
32473;SDS011;41885;53.190;7.984;2022-09-09T16:30:18;3.83;;;2.17;;
32473;SDS011;41885;53.190;7.984;2022-09-09T16:34:20;9.63;;;2.70;;
32473;SDS011;41885;53.190;7.984;2022-09-09T16:38:22;5.53;;;2.20;;
32473;SDS011;41885;53.190;7.984;2022-09-09T16:42:24;4.93;;;2.22;;
32473;SDS011;41885;53.190;7.984;2022-09-09T16:46:28;8.52;;;2.40;;
32473;SDS011;41885;53.190;7.984;2022-09-09T16:50:31;6.22;;;2.47;;
32473;SDS011;41885;53.190;7.984;2022-09-09T16:54:33;6.60;;;3.25;;
32473;SDS011;41885;53.190;7.984;2022-09-09T16:58:34;7.13;;;2.33;;
32473;SDS011;41885;53.190;7.984;2022-09-09T17:02:38;6.13;;;2.50;;
32473;SDS011;41885;53.190;7.984;2022-09-09T17:06:40;4.85;;;2.50;;
32473;SDS011;41885;53.190;7.984;2022-09-09T17:10:41;4.78;;;1.52;;
32473;SDS011;41885;53.190;7.984;2022-09-09T17:14:44;3.70;;;1.73;;
32473;SDS011;41885;53.190;7.984;2022-09-09T17:18:47;4.68;;;1.50;;
32473;SDS011;41885;53.190;7.984;2022-09-09T17:22:49;6.18;;;1.55;;
32473;SDS011;41885;53.190;7.984;2022-09-09T17:26:51;6.53;;;1.77;;
32473;SDS011;41885;53.190;7.984;2022-09-09T17:30:53;1.75;;;1.30;;
32473;SDS011;41885;53.190;7.984;2022-09-09T17:34:56;2.58;;;1.40;;
32473;SDS011;41885;53.190;7.984;2022-09-09T17:38:58;4.18;;;1.52;;
32473;SDS011;41885;53.190;7.984;2022-09-09T17:43:01;2.50;;;1.10;;
32473;SDS011;41885;53.190;7.984;2022-09-09T17:47:02;3.90;;;1.30;;
32473;SDS011;41885;53.190;7.984;2022-09-09T17:51:09;4.57;;;1.50;;
32473;SDS011;41885;53.190;7.984;2022-09-09T17:55:13;1.20;;;0.82;;
32473;SDS011;41885;53.190;7.984;2022-09-09T17:59:17;2.15;;;1.05;;
32473;SDS011;41885;53.190;7.984;2022-09-09T18:03:19;2.22;;;1.13;;
32473;SDS011;41885;53.190;7.984;2022-09-09T18:07:22;3.42;;;1.40;;
32473;SDS011;41885;53.190;7.984;2022-09-09T18:11:25;1.60;;;1.20;;
32473;SDS011;41885;53.190;7.984;2022-09-09T18:15:28;2.40;;;1.38;;
32473;SDS011;41885;53.190;7.984;2022-09-09T18:19:31;3.90;;;1.60;;
32473;SDS011;41885;53.190;7.984;2022-09-09T18:23:35;6.63;;;1.90;;
32473;SDS011;41885;53.190;7.984;2022-09-09T18:31:39;6.22;;;1.50;;
32473;SDS011;41885;53.190;7.984;2022-09-09T18:35:41;3.97;;;1.77;;
32473;SDS011;41885;53.190;7.984;2022-09-09T18:39:44;3.60;;;2.10;;
32473;SDS011;41885;53.190;7.984;2022-09-09T18:43:47;3.30;;;1.90;;
32473;SDS011;41885;53.190;7.984;2022-09-09T18:47:50;5.17;;;2.10;;
32473;SDS011;41885;53.190;7.984;2022-09-09T18:51:52;3.42;;;2.20;;
32473;SDS011;41885;53.190;7.984;2022-09-09T18:55:58;6.95;;;2.20;;
32473;SDS011;41885;53.190;7.984;2022-09-09T19:00:01;6.38;;;2.50;;
32473;SDS011;41885;53.190;7.984;2022-09-09T19:04:04;4.88;;;2.28;;
32473;SDS011;41885;53.190;7.984;2022-09-09T19:12:10;2.88;;;1.98;;
32473;SDS011;41885;53.190;7.984;2022-09-09T19:16:13;3.05;;;2.25;;
32473;SDS011;41885;53.190;7.984;2022-09-09T19:20:15;4.15;;;2.40;;
32473;SDS011;41885;53.190;7.984;2022-09-09T19:24:20;12.02;;;2.45;;
32473;SDS011;41885;53.190;7.984;2022-09-09T19:28:25;4.32;;;2.38;;
32473;SDS011;41885;53.190;7.984;2022-09-09T19:32:26;3.03;;;2.13;;
32473;SDS011;41885;53.190;7.984;2022-09-09T19:36:28;4.25;;;2.47;;
32473;SDS011;41885;53.190;7.984;2022-09-09T19:40:30;6.90;;;2.55;;
32473;SDS011;41885;53.190;7.984;2022-09-09T19:44:36;2.85;;;2.20;;
32473;SDS011;41885;53.190;7.984;2022-09-09T19:48:39;6.32;;;2.50;;
32473;SDS011;41885;53.190;7.984;2022-09-09T19:56:44;3.35;;;2.20;;
32473;SDS011;41885;53.190;7.984;2022-09-09T20:00:47;6.30;;;2.30;;
32473;SDS011;41885;53.190;7.984;2022-09-09T20:04:49;3.28;;;1.67;;
32473;SDS011;41885;53.190;7.984;2022-09-09T20:08:51;3.83;;;2.03;;
32473;SDS011;41885;53.190;7.984;2022-09-09T20:12:54;2.67;;;1.83;;
32473;SDS011;41885;53.190;7.984;2022-09-09T20:16:57;3.40;;;1.90;;
32473;SDS011;41885;53.190;7.984;2022-09-09T20:20:59;4.30;;;1.80;;
32473;SDS011;41885;53.190;7.984;2022-09-09T20:25:03;3.40;;;1.98;;
32473;SDS011;41885;53.190;7.984;2022-09-09T20:29:07;2.67;;;1.90;;
32473;SDS011;41885;53.190;7.984;2022-09-09T20:33:12;3.63;;;1.80;;
32473;SDS011;41885;53.190;7.984;2022-09-09T20:37:14;2.10;;;1.70;;
32473;SDS011;41885;53.190;7.984;2022-09-09T20:41:17;5.75;;;2.30;;
32473;SDS011;41885;53.190;7.984;2022-09-09T20:45:21;5.03;;;2.15;;
32473;SDS011;41885;53.190;7.984;2022-09-09T20:49:24;6.95;;;2.35;;
32473;SDS011;41885;53.190;7.984;2022-09-09T20:53:27;4.30;;;2.80;;
32473;SDS011;41885;53.190;7.984;2022-09-09T20:57:28;2.75;;;2.13;;
32473;SDS011;41885;53.190;7.984;2022-09-09T21:01:30;5.07;;;2.28;;
32473;SDS011;41885;53.190;7.984;2022-09-09T21:05:33;4.20;;;2.08;;
32473;SDS011;41885;53.190;7.984;2022-09-09T21:09:38;6.05;;;2.38;;
32473;SDS011;41885;53.190;7.984;2022-09-09T21:13:40;4.22;;;2.53;;
32473;SDS011;41885;53.190;7.984;2022-09-09T21:17:42;8.43;;;2.22;;
32473;SDS011;41885;53.190;7.984;2022-09-09T21:21:47;3.43;;;2.33;;
32473;SDS011;41885;53.190;7.984;2022-09-09T21:25:49;8.85;;;3.10;;
32473;SDS011;41885;53.190;7.984;2022-09-09T21:29:51;4.70;;;2.30;;
32473;SDS011;41885;53.190;7.984;2022-09-09T21:33:53;4.28;;;2.50;;
32473;SDS011;41885;53.190;7.984;2022-09-09T21:37:57;5.03;;;2.72;;
32473;SDS011;41885;53.190;7.984;2022-09-09T21:41:59;5.13;;;2.60;;
32473;SDS011;41885;53.190;7.984;2022-09-09T21:46:04;5.97;;;2.63;;
32473;SDS011;41885;53.190;7.984;2022-09-09T21:50:07;5.53;;;2.78;;
32473;SDS011;41885;53.190;7.984;2022-09-09T21:54:11;6.95;;;2.67;;
32473;SDS011;41885;53.190;7.984;2022-09-09T21:58:13;10.32;;;3.63;;
32473;SDS011;41885;53.190;7.984;2022-09-09T22:02:17;7.40;;;3.47;;
32473;SDS011;41885;53.190;7.984;2022-09-09T22:06:19;5.85;;;3.33;;
32473;SDS011;41885;53.190;7.984;2022-09-09T22:10:23;5.15;;;3.30;;
32473;SDS011;41885;53.190;7.984;2022-09-09T22:14:26;8.25;;;3.30;;
32473;SDS011;41885;53.190;7.984;2022-09-09T22:18:28;7.97;;;3.10;;
32473;SDS011;41885;53.190;7.984;2022-09-09T22:22:31;4.40;;;3.17;;
32473;SDS011;41885;53.190;7.984;2022-09-09T22:26:35;4.93;;;3.13;;
32473;SDS011;41885;53.190;7.984;2022-09-09T22:30:38;7.00;;;3.95;;
32473;SDS011;41885;53.190;7.984;2022-09-09T22:34:40;6.72;;;3.50;;
32473;SDS011;41885;53.190;7.984;2022-09-09T22:38:41;7.82;;;3.88;;
32473;SDS011;41885;53.190;7.984;2022-09-09T22:42:44;3.95;;;3.08;;
32473;SDS011;41885;53.190;7.984;2022-09-09T22:46:46;9.13;;;4.63;;
32473;SDS011;41885;53.190;7.984;2022-09-09T22:50:48;7.43;;;4.18;;
32473;SDS011;41885;53.190;7.984;2022-09-09T22:54:50;7.25;;;3.70;;
32473;SDS011;41885;53.190;7.984;2022-09-09T22:58:54;10.05;;;4.60;;
32473;SDS011;41885;53.190;7.984;2022-09-09T23:02:57;6.45;;;4.22;;
32473;SDS011;41885;53.190;7.984;2022-09-09T23:06:58;10.05;;;4.30;;
32473;SDS011;41885;53.190;7.984;2022-09-09T23:11:03;7.70;;;4.60;;
32473;SDS011;41885;53.190;7.984;2022-09-09T23:15:10;7.63;;;4.88;;
32473;SDS011;41885;53.190;7.984;2022-09-09T23:23:15;6.20;;;4.55;;
32473;SDS011;41885;53.190;7.984;2022-09-09T23:27:17;8.20;;;5.10;;
32473;SDS011;41885;53.190;7.984;2022-09-09T23:31:21;7.65;;;4.68;;
32473;SDS011;41885;53.190;7.984;2022-09-09T23:35:25;8.20;;;4.85;;
32473;SDS011;41885;53.190;7.984;2022-09-09T23:39:26;8.70;;;5.18;;
32473;SDS011;41885;53.190;7.984;2022-09-09T23:43:28;9.82;;;4.72;;
32473;SDS011;41885;53.190;7.984;2022-09-09T23:47:31;7.32;;;4.78;;
32473;SDS011;41885;53.190;7.984;2022-09-09T23:51:33;6.97;;;4.60;;
32473;SDS011;41885;53.190;7.984;2022-09-09T23:55:34;9.90;;;5.57;;
32473;SDS011;41885;53.190;7.984;2022-09-09T23:59:36;9.25;;;4.70;;
